sensor_id;sensor_type;location;lat;lon;timestamp;P1;durP1;ratioP1;P2;durP2;ratioP2
44426;SDS011;30133;47.866;-4.222;2023-02-01T04:34:27;3.10;;;1.05;;
44426;SDS011;30133;47.866;-4.222;2023-02-01T10:25:14;4.10;;;1.67;;
44426;SDS011;30133;47.866;-4.222;2023-02-01T10:28:29;4.78;;;2.25;;
44426;SDS011;30133;47.866;-4.222;2023-02-01T10:35:24;9.15;;;2.67;;
44426;SDS011;30133;47.866;-4.222;2023-02-01T10:39:17;7.90;;;2.40;;
44426;SDS011;30133;47.866;-4.222;2023-02-01T10:42:58;5.85;;;2.05;;
44426;SDS011;30133;47.866;-4.222;2023-02-01T10:46:25;6.57;;;2.72;;
44426;SDS011;30133;47.866;-4.222;2023-02-01T10:56:18;5.03;;;2.15;;
44426;SDS011;30133;47.866;-4.222;2023-02-01T11:07:45;6.38;;;2.40;;
44426;SDS011;30133;47.866;-4.222;2023-02-01T11:21:29;5.53;;;2.28;;
44426;SDS011;30133;47.866;-4.222;2023-02-01T11:23:59;5.80;;;2.38;;
44426;SDS011;30133;47.866;-4.222;2023-02-01T11:26:28;5.50;;;2.38;;
44426;SDS011;30133;47.866;-4.222;2023-02-01T11:29:04;4.20;;;1.50;;
44426;SDS011;30133;47.866;-4.222;2023-02-01T11:31:45;5.18;;;2.00;;
44426;SDS011;30133;47.866;-4.222;2023-02-01T11:54:10;4.30;;;1.70;;
44426;SDS011;30133;47.866;-4.222;2023-02-01T11:57:28;4.72;;;1.80;;
44426;SDS011;30133;47.866;-4.222;2023-02-01T12:01:06;3.97;;;1.77;;
44426;SDS011;30133;47.866;-4.222;2023-02-01T12:15:11;10.57;;;2.03;;
44426;SDS011;30133;47.866;-4.222;2023-02-01T12:17:59;5.70;;;1.98;;
44426;SDS011;30133;47.866;-4.222;2023-02-01T12:20:56;4.25;;;1.85;;
44426;SDS011;30133;47.866;-4.222;2023-02-01T12:32:24;9.90;;;2.10;;
44426;SDS011;30133;47.866;-4.222;2023-02-01T12:38:03;4.22;;;2.13;;
44426;SDS011;30133;47.866;-4.222;2023-02-01T12:40:56;5.25;;;1.95;;
44426;SDS011;30133;47.866;-4.222;2023-02-01T12:43:45;4.28;;;1.90;;
44426;SDS011;30133;47.866;-4.222;2023-02-01T12:48:57;4.50;;;2.03;;
44426;SDS011;30133;47.866;-4.222;2023-02-01T12:51:36;6.18;;;2.10;;
44426;SDS011;30133;47.866;-4.222;2023-02-01T12:54:18;5.35;;;1.92;;
44426;SDS011;30133;47.866;-4.222;2023-02-01T12:56:53;3.85;;;1.88;;
44426;SDS011;30133;47.866;-4.222;2023-02-01T12:59:33;4.82;;;1.77;;
44426;SDS011;30133;47.866;-4.222;2023-02-01T13:02:10;6.95;;;2.08;;
44426;SDS011;30133;47.866;-4.222;2023-02-01T13:07:43;4.38;;;2.05;;
44426;SDS011;30133;47.866;-4.222;2023-02-01T13:10:18;3.80;;;1.98;;
44426;SDS011;30133;47.866;-4.222;2023-02-01T13:12:56;6.05;;;2.35;;
44426;SDS011;30133;47.866;-4.222;2023-02-01T13:15:56;5.22;;;2.10;;
44426;SDS011;30133;47.866;-4.222;2023-02-01T13:18:36;8.68;;;2.03;;
44426;SDS011;30133;47.866;-4.222;2023-02-01T13:21:20;8.73;;;2.38;;
44426;SDS011;30133;47.866;-4.222;2023-02-01T13:26:15;6.13;;;2.33;;
44426;SDS011;30133;47.866;-4.222;2023-02-01T13:28:46;8.15;;;2.20;;
44426;SDS011;30133;47.866;-4.222;2023-02-01T13:31:20;4.97;;;1.95;;
44426;SDS011;30133;47.866;-4.222;2023-02-01T13:37:04;3.78;;;1.73;;
44426;SDS011;30133;47.866;-4.222;2023-02-01T13:45:24;6.55;;;1.70;;
44426;SDS011;30133;47.866;-4.222;2023-02-01T13:47:55;5.07;;;2.25;;
44426;SDS011;30133;47.866;-4.222;2023-02-01T13:50:33;5.93;;;2.08;;
44426;SDS011;30133;47.866;-4.222;2023-02-01T13:53:04;8.23;;;3.00;;
44426;SDS011;30133;47.866;-4.222;2023-02-01T13:55:41;4.38;;;1.75;;
44426;SDS011;30133;47.866;-4.222;2023-02-01T14:00:44;4.50;;;1.55;;
44426;SDS011;30133;47.866;-4.222;2023-02-01T14:03:54;7.95;;;2.30;;
44426;SDS011;30133;47.866;-4.222;2023-02-01T14:06:32;8.75;;;2.05;;
44426;SDS011;30133;47.866;-4.222;2023-02-01T14:09:19;4.13;;;2.00;;
44426;SDS011;30133;47.866;-4.222;2023-02-01T14:17:44;4.30;;;1.75;;
44426;SDS011;30133;47.866;-4.222;2023-02-01T14:20:38;7.47;;;2.15;;
44426;SDS011;30133;47.866;-4.222;2023-02-01T14:23:11;5.00;;;1.55;;
44426;SDS011;30133;47.866;-4.222;2023-02-01T14:25:42;9.05;;;2.10;;
44426;SDS011;30133;47.866;-4.222;2023-02-01T14:28:19;3.25;;;1.70;;
44426;SDS011;30133;47.866;-4.222;2023-02-01T14:30:50;6.40;;;3.38;;
44426;SDS011;30133;47.866;-4.222;2023-02-01T14:33:23;5.03;;;1.92;;
44426;SDS011;30133;47.866;-4.222;2023-02-01T14:36:07;9.45;;;1.95;;
44426;SDS011;30133;47.866;-4.222;2023-02-01T14:38:36;6.28;;;2.92;;
44426;SDS011;30133;47.866;-4.222;2023-02-01T14:41:37;7.85;;;1.85;;
44426;SDS011;30133;47.866;-4.222;2023-02-01T14:49:31;11.25;;;2.35;;
44426;SDS011;30133;47.866;-4.222;2023-02-01T14:51:59;4.55;;;1.77;;
44426;SDS011;30133;47.866;-4.222;2023-02-01T14:54:26;3.20;;;1.42;;
44426;SDS011;30133;47.866;-4.222;2023-02-01T14:56:53;4.63;;;1.85;;
44426;SDS011;30133;47.866;-4.222;2023-02-01T14:59:24;4.07;;;1.58;;
44426;SDS011;30133;47.866;-4.222;2023-02-01T15:02:00;4.13;;;1.63;;
44426;SDS011;30133;47.866;-4.222;2023-02-01T15:04:27;6.20;;;1.77;;
44426;SDS011;30133;47.866;-4.222;2023-02-01T15:06:54;5.70;;;1.60;;
44426;SDS011;30133;47.866;-4.222;2023-02-01T15:09:38;8.20;;;2.17;;
44426;SDS011;30133;47.866;-4.222;2023-02-01T15:15:12;4.55;;;1.75;;
44426;SDS011;30133;47.866;-4.222;2023-02-01T15:17:41;5.03;;;1.90;;
44426;SDS011;30133;47.866;-4.222;2023-02-01T15:20:15;7.57;;;1.88;;
44426;SDS011;30133;47.866;-4.222;2023-02-01T15:22:52;4.05;;;1.50;;
44426;SDS011;30133;47.866;-4.222;2023-02-01T15:25:28;6.68;;;1.92;;
44426;SDS011;30133;47.866;-4.222;2023-02-01T15:27:56;6.97;;;1.40;;
44426;SDS011;30133;47.866;-4.222;2023-02-01T15:30:30;5.15;;;1.65;;
44426;SDS011;30133;47.866;-4.222;2023-02-01T15:33:13;4.00;;;1.80;;
44426;SDS011;30133;47.866;-4.222;2023-02-01T15:41:02;5.63;;;1.63;;
44426;SDS011;30133;47.866;-4.222;2023-02-01T15:43:33;5.95;;;1.88;;
44426;SDS011;30133;47.866;-4.222;2023-02-01T15:46:11;6.72;;;1.90;;
44426;SDS011;30133;47.866;-4.222;2023-02-01T15:48:57;8.50;;;2.38;;
44426;SDS011;30133;47.866;-4.222;2023-02-01T15:51:25;14.48;;;2.08;;
44426;SDS011;30133;47.866;-4.222;2023-02-01T15:56:36;9.30;;;2.10;;
44426;SDS011;30133;47.866;-4.222;2023-02-01T15:59:06;6.15;;;1.50;;
44426;SDS011;30133;47.866;-4.222;2023-02-01T16:01:40;7.65;;;2.08;;
44426;SDS011;30133;47.866;-4.222;2023-02-01T16:07:01;7.22;;;2.13;;
44426;SDS011;30133;47.866;-4.222;2023-02-01T16:15:09;5.90;;;2.05;;
44426;SDS011;30133;47.866;-4.222;2023-02-01T16:17:35;5.70;;;1.75;;
44426;SDS011;30133;47.866;-4.222;2023-02-01T16:20:01;3.80;;;1.30;;
44426;SDS011;30133;47.866;-4.222;2023-02-01T16:22:28;3.53;;;1.30;;
44426;SDS011;30133;47.866;-4.222;2023-02-01T16:24:54;7.43;;;3.33;;
44426;SDS011;30133;47.866;-4.222;2023-02-01T16:27:22;2.55;;;1.48;;
44426;SDS011;30133;47.866;-4.222;2023-02-01T16:29:49;4.93;;;1.40;;
44426;SDS011;30133;47.866;-4.222;2023-02-01T16:42:22;7.07;;;1.63;;
44426;SDS011;30133;47.866;-4.222;2023-02-01T16:44:55;8.65;;;1.85;;
44426;SDS011;30133;47.866;-4.222;2023-02-01T16:47:21;6.57;;;1.77;;
44426;SDS011;30133;47.866;-4.222;2023-02-01T16:49:49;3.88;;;1.42;;
44426;SDS011;30133;47.866;-4.222;2023-02-01T16:52:19;3.90;;;1.13;;
44426;SDS011;30133;47.866;-4.222;2023-02-01T16:54:46;4.55;;;1.90;;
44426;SDS011;30133;47.866;-4.222;2023-02-01T16:57:15;6.07;;;1.63;;
44426;SDS011;30133;47.866;-4.222;2023-02-01T16:59:43;4.25;;;1.30;;
44426;SDS011;30133;47.866;-4.222;2023-02-01T17:02:13;5.30;;;1.95;;
44426;SDS011;30133;47.866;-4.222;2023-02-01T17:04:42;6.38;;;1.55;;
44426;SDS011;30133;47.866;-4.222;2023-02-01T17:07:11;4.78;;;1.75;;
44426;SDS011;30133;47.866;-4.222;2023-02-01T17:09:38;5.18;;;2.00;;
44426;SDS011;30133;47.866;-4.222;2023-02-01T17:12:05;4.38;;;1.45;;
44426;SDS011;30133;47.866;-4.222;2023-02-01T17:14:46;6.47;;;1.92;;
44426;SDS011;30133;47.866;-4.222;2023-02-01T17:17:12;7.30;;;1.30;;
44426;SDS011;30133;47.866;-4.222;2023-02-01T17:19:39;2.67;;;1.05;;
44426;SDS011;30133;47.866;-4.222;2023-02-01T17:22:06;3.03;;;1.50;;
44426;SDS011;30133;47.866;-4.222;2023-02-01T17:24:32;9.13;;;1.70;;
44426;SDS011;30133;47.866;-4.222;2023-02-01T17:26:59;6.00;;;2.05;;
44426;SDS011;30133;47.866;-4.222;2023-02-01T17:29:25;3.35;;;1.48;;
44426;SDS011;30133;47.866;-4.222;2023-02-01T17:31:53;4.50;;;1.70;;
44426;SDS011;30133;47.866;-4.222;2023-02-01T17:34:20;7.30;;;1.75;;
44426;SDS011;30133;47.866;-4.222;2023-02-01T17:36:47;6.75;;;1.70;;
44426;SDS011;30133;47.866;-4.222;2023-02-01T17:39:15;5.75;;;1.77;;
44426;SDS011;30133;47.866;-4.222;2023-02-01T17:42:00;4.53;;;1.33;;
44426;SDS011;30133;47.866;-4.222;2023-02-01T17:48:22;5.68;;;1.92;;
44426;SDS011;30133;47.866;-4.222;2023-02-01T17:50:49;4.80;;;1.65;;
44426;SDS011;30133;47.866;-4.222;2023-02-01T17:53:19;6.72;;;1.48;;
44426;SDS011;30133;47.866;-4.222;2023-02-01T17:55:48;3.70;;;1.52;;
44426;SDS011;30133;47.866;-4.222;2023-02-01T17:58:15;3.25;;;1.30;;
44426;SDS011;30133;47.866;-4.222;2023-02-01T18:00:42;10.07;;;1.85;;
44426;SDS011;30133;47.866;-4.222;2023-02-01T18:03:16;3.97;;;1.33;;
44426;SDS011;30133;47.866;-4.222;2023-02-01T18:05:51;6.85;;;1.60;;
44426;SDS011;30133;47.866;-4.222;2023-02-01T18:08:20;4.05;;;1.50;;
44426;SDS011;30133;47.866;-4.222;2023-02-01T18:10:54;4.03;;;1.33;;
44426;SDS011;30133;47.866;-4.222;2023-02-01T18:13:24;3.17;;;1.25;;
44426;SDS011;30133;47.866;-4.222;2023-02-01T18:15:54;7.13;;;1.95;;
44426;SDS011;30133;47.866;-4.222;2023-02-01T18:18:28;4.60;;;1.50;;
44426;SDS011;30133;47.866;-4.222;2023-02-01T18:20:57;2.15;;;1.30;;
44426;SDS011;30133;47.866;-4.222;2023-02-01T18:23:24;4.25;;;1.48;;
44426;SDS011;30133;47.866;-4.222;2023-02-01T18:25:51;4.65;;;1.80;;
44426;SDS011;30133;47.866;-4.222;2023-02-01T18:28:17;5.75;;;1.70;;
44426;SDS011;30133;47.866;-4.222;2023-02-01T18:30:45;6.78;;;1.88;;
44426;SDS011;30133;47.866;-4.222;2023-02-01T18:33:13;3.83;;;1.30;;
44426;SDS011;30133;47.866;-4.222;2023-02-01T18:35:41;4.72;;;1.60;;
44426;SDS011;30133;47.866;-4.222;2023-02-01T18:38:08;3.83;;;1.88;;
44426;SDS011;30133;47.866;-4.222;2023-02-01T18:40:35;3.25;;;1.67;;
44426;SDS011;30133;47.866;-4.222;2023-02-01T18:43:11;12.65;;;2.00;;
44426;SDS011;30133;47.866;-4.222;2023-02-01T18:45:39;4.45;;;1.50;;
44426;SDS011;30133;47.866;-4.222;2023-02-01T18:48:07;3.47;;;1.30;;
44426;SDS011;30133;47.866;-4.222;2023-02-01T18:50:35;6.65;;;2.10;;
44426;SDS011;30133;47.866;-4.222;2023-02-01T18:53:04;3.63;;;1.50;;
44426;SDS011;30133;47.866;-4.222;2023-02-01T18:55:32;4.97;;;1.42;;
44426;SDS011;30133;47.866;-4.222;2023-02-01T18:57:59;7.05;;;1.83;;
44426;SDS011;30133;47.866;-4.222;2023-02-01T19:00:26;4.88;;;1.38;;
44426;SDS011;30133;47.866;-4.222;2023-02-01T19:02:53;3.10;;;1.40;;
44426;SDS011;30133;47.866;-4.222;2023-02-01T19:05:20;5.50;;;1.92;;
44426;SDS011;30133;47.866;-4.222;2023-02-01T19:07:46;3.42;;;1.63;;
44426;SDS011;30133;47.866;-4.222;2023-02-01T19:10:15;4.45;;;1.25;;
44426;SDS011;30133;47.866;-4.222;2023-02-01T19:12:43;4.63;;;1.33;;
44426;SDS011;30133;47.866;-4.222;2023-02-01T19:15:10;6.82;;;1.88;;
44426;SDS011;30133;47.866;-4.222;2023-02-01T19:17:39;3.40;;;1.33;;
44426;SDS011;30133;47.866;-4.222;2023-02-01T19:20:10;3.28;;;1.27;;
44426;SDS011;30133;47.866;-4.222;2023-02-01T19:22:38;4.43;;;1.52;;
44426;SDS011;30133;47.866;-4.222;2023-02-01T19:25:05;2.90;;;1.30;;
44426;SDS011;30133;47.866;-4.222;2023-02-01T19:27:33;4.32;;;1.63;;
44426;SDS011;30133;47.866;-4.222;2023-02-01T19:30:00;5.25;;;1.58;;
44426;SDS011;30133;47.866;-4.222;2023-02-01T19:32:26;5.38;;;2.15;;
44426;SDS011;30133;47.866;-4.222;2023-02-01T19:34:54;7.43;;;2.75;;
44426;SDS011;30133;47.866;-4.222;2023-02-01T19:37:20;4.38;;;1.58;;
44426;SDS011;30133;47.866;-4.222;2023-02-01T19:39:47;6.35;;;1.90;;
44426;SDS011;30133;47.866;-4.222;2023-02-01T19:42:13;6.70;;;1.83;;
44426;SDS011;30133;47.866;-4.222;2023-02-01T19:44:39;6.35;;;1.90;;
44426;SDS011;30133;47.866;-4.222;2023-02-01T19:47:06;5.20;;;2.03;;
44426;SDS011;30133;47.866;-4.222;2023-02-01T19:49:34;4.22;;;1.45;;
44426;SDS011;30133;47.866;-4.222;2023-02-01T19:52:00;5.53;;;1.92;;
44426;SDS011;30133;47.866;-4.222;2023-02-01T19:54:27;7.15;;;1.70;;
44426;SDS011;30133;47.866;-4.222;2023-02-01T19:56:53;4.75;;;1.67;;
44426;SDS011;30133;47.866;-4.222;2023-02-01T19:59:20;4.90;;;2.35;;
44426;SDS011;30133;47.866;-4.222;2023-02-01T20:02:01;8.93;;;2.08;;
44426;SDS011;30133;47.866;-4.222;2023-02-01T20:04:34;3.17;;;1.35;;
44426;SDS011;30133;47.866;-4.222;2023-02-01T20:07:00;6.13;;;1.98;;
44426;SDS011;30133;47.866;-4.222;2023-02-01T20:09:27;5.72;;;1.63;;
44426;SDS011;30133;47.866;-4.222;2023-02-01T20:11:54;5.97;;;1.80;;
44426;SDS011;30133;47.866;-4.222;2023-02-01T20:14:21;5.05;;;1.98;;
44426;SDS011;30133;47.866;-4.222;2023-02-01T20:16:51;5.22;;;1.40;;
44426;SDS011;30133;47.866;-4.222;2023-02-01T20:19:17;3.83;;;1.85;;
44426;SDS011;30133;47.866;-4.222;2023-02-01T20:21:44;3.95;;;1.63;;
44426;SDS011;30133;47.866;-4.222;2023-02-01T20:24:12;4.97;;;1.95;;
44426;SDS011;30133;47.866;-4.222;2023-02-01T20:26:41;5.50;;;1.92;;
44426;SDS011;30133;47.866;-4.222;2023-02-01T20:29:08;7.68;;;2.10;;
44426;SDS011;30133;47.866;-4.222;2023-02-01T20:31:34;6.85;;;2.08;;
44426;SDS011;30133;47.866;-4.222;2023-02-01T20:34:01;4.50;;;1.73;;
44426;SDS011;30133;47.866;-4.222;2023-02-01T20:36:28;4.00;;;1.77;;
44426;SDS011;30133;47.866;-4.222;2023-02-01T20:38:55;7.53;;;2.28;;
44426;SDS011;30133;47.866;-4.222;2023-02-01T20:41:22;4.00;;;1.95;;
44426;SDS011;30133;47.866;-4.222;2023-02-01T20:43:49;6.00;;;2.28;;
44426;SDS011;30133;47.866;-4.222;2023-02-01T20:46:16;6.93;;;2.28;;
44426;SDS011;30133;47.866;-4.222;2023-02-01T20:48:43;5.65;;;2.13;;
44426;SDS011;30133;47.866;-4.222;2023-02-01T20:51:11;8.00;;;2.00;;
44426;SDS011;30133;47.866;-4.222;2023-02-01T20:53:38;5.07;;;2.10;;
44426;SDS011;30133;47.866;-4.222;2023-02-01T20:56:05;5.88;;;1.98;;
44426;SDS011;30133;47.866;-4.222;2023-02-01T20:58:33;5.68;;;2.58;;
44426;SDS011;30133;47.866;-4.222;2023-02-01T21:00:59;5.50;;;2.42;;
44426;SDS011;30133;47.866;-4.222;2023-02-01T21:03:26;6.65;;;2.20;;
44426;SDS011;30133;47.866;-4.222;2023-02-01T21:05:53;5.40;;;2.28;;
44426;SDS011;30133;47.866;-4.222;2023-02-01T21:08:23;6.57;;;2.13;;
44426;SDS011;30133;47.866;-4.222;2023-02-01T21:10:57;5.68;;;2.33;;
44426;SDS011;30133;47.866;-4.222;2023-02-01T21:13:25;5.57;;;1.80;;
44426;SDS011;30133;47.866;-4.222;2023-02-01T21:15:54;10.38;;;3.15;;
44426;SDS011;30133;47.866;-4.222;2023-02-01T21:18:22;5.57;;;2.53;;
44426;SDS011;30133;47.866;-4.222;2023-02-01T21:20:49;5.82;;;2.63;;
44426;SDS011;30133;47.866;-4.222;2023-02-01T21:23:15;6.30;;;2.35;;
44426;SDS011;30133;47.866;-4.222;2023-02-01T21:25:42;5.72;;;2.40;;
44426;SDS011;30133;47.866;-4.222;2023-02-01T21:28:09;5.57;;;2.97;;
44426;SDS011;30133;47.866;-4.222;2023-02-01T21:30:36;6.93;;;3.03;;
44426;SDS011;30133;47.866;-4.222;2023-02-01T21:33:03;6.30;;;2.60;;
44426;SDS011;30133;47.866;-4.222;2023-02-01T21:35:30;6.93;;;2.90;;
44426;SDS011;30133;47.866;-4.222;2023-02-01T21:37:57;9.07;;;2.67;;
44426;SDS011;30133;47.866;-4.222;2023-02-01T21:40:23;6.47;;;2.58;;
44426;SDS011;30133;47.866;-4.222;2023-02-01T21:42:50;6.97;;;2.78;;
44426;SDS011;30133;47.866;-4.222;2023-02-01T21:45:16;7.75;;;3.10;;
44426;SDS011;30133;47.866;-4.222;2023-02-01T21:47:43;7.15;;;2.85;;
44426;SDS011;30133;47.866;-4.222;2023-02-01T21:50:16;7.15;;;2.65;;
44426;SDS011;30133;47.866;-4.222;2023-02-01T21:52:44;5.75;;;2.50;;
44426;SDS011;30133;47.866;-4.222;2023-02-01T21:55:11;7.78;;;3.33;;
44426;SDS011;30133;47.866;-4.222;2023-02-01T21:57:38;8.30;;;3.40;;
44426;SDS011;30133;47.866;-4.222;2023-02-01T22:00:06;5.93;;;2.63;;
44426;SDS011;30133;47.866;-4.222;2023-02-01T22:02:33;6.45;;;3.10;;
44426;SDS011;30133;47.866;-4.222;2023-02-01T22:05:01;4.57;;;2.67;;
44426;SDS011;30133;47.866;-4.222;2023-02-01T22:07:29;5.72;;;3.20;;
44426;SDS011;30133;47.866;-4.222;2023-02-01T22:09:57;10.02;;;3.70;;
44426;SDS011;30133;47.866;-4.222;2023-02-01T22:12:24;6.50;;;3.22;;
44426;SDS011;30133;47.866;-4.222;2023-02-01T22:14:51;9.40;;;3.53;;
44426;SDS011;30133;47.866;-4.222;2023-02-01T22:17:18;5.70;;;2.60;;
44426;SDS011;30133;47.866;-4.222;2023-02-01T22:19:44;8.60;;;3.38;;
44426;SDS011;30133;47.866;-4.222;2023-02-01T22:22:11;7.95;;;3.45;;
44426;SDS011;30133;47.866;-4.222;2023-02-01T22:24:37;7.93;;;3.17;;
44426;SDS011;30133;47.866;-4.222;2023-02-01T22:27:03;9.70;;;4.57;;
44426;SDS011;30133;47.866;-4.222;2023-02-01T22:29:30;7.70;;;3.25;;
44426;SDS011;30133;47.866;-4.222;2023-02-01T22:31:58;5.90;;;3.08;;
44426;SDS011;30133;47.866;-4.222;2023-02-01T22:34:25;3.88;;;2.55;;
44426;SDS011;30133;47.866;-4.222;2023-02-01T22:36:52;11.82;;;3.42;;
44426;SDS011;30133;47.866;-4.222;2023-02-01T22:39:19;7.75;;;3.58;;
44426;SDS011;30133;47.866;-4.222;2023-02-01T22:41:48;7.55;;;2.78;;
44426;SDS011;30133;47.866;-4.222;2023-02-01T22:44:14;10.55;;;3.38;;
44426;SDS011;30133;47.866;-4.222;2023-02-01T22:46:41;6.75;;;3.08;;
44426;SDS011;30133;47.866;-4.222;2023-02-01T22:49:08;5.20;;;2.95;;
44426;SDS011;30133;47.866;-4.222;2023-02-01T22:51:35;11.70;;;3.35;;
44426;SDS011;30133;47.866;-4.222;2023-02-01T22:54:01;6.85;;;2.90;;
44426;SDS011;30133;47.866;-4.222;2023-02-01T22:56:32;5.30;;;2.88;;
44426;SDS011;30133;47.866;-4.222;2023-02-01T22:59:03;9.00;;;2.63;;
44426;SDS011;30133;47.866;-4.222;2023-02-01T23:01:31;7.60;;;3.33;;
44426;SDS011;30133;47.866;-4.222;2023-02-01T23:03:59;9.40;;;2.63;;
44426;SDS011;30133;47.866;-4.222;2023-02-01T23:06:27;7.15;;;3.00;;
44426;SDS011;30133;47.866;-4.222;2023-02-01T23:08:58;8.40;;;3.35;;
44426;SDS011;30133;47.866;-4.222;2023-02-01T23:11:26;8.02;;;3.25;;
44426;SDS011;30133;47.866;-4.222;2023-02-01T23:13:53;6.38;;;2.83;;
44426;SDS011;30133;47.866;-4.222;2023-02-01T23:16:20;10.80;;;3.35;;
44426;SDS011;30133;47.866;-4.222;2023-02-01T23:18:47;10.10;;;2.80;;
44426;SDS011;30133;47.866;-4.222;2023-02-01T23:21:18;6.78;;;2.65;;
44426;SDS011;30133;47.866;-4.222;2023-02-01T23:23:46;6.53;;;2.63;;
44426;SDS011;30133;47.866;-4.222;2023-02-01T23:26:13;7.60;;;3.03;;
44426;SDS011;30133;47.866;-4.222;2023-02-01T23:28:40;6.20;;;2.40;;
44426;SDS011;30133;47.866;-4.222;2023-02-01T23:31:07;5.00;;;2.45;;
44426;SDS011;30133;47.866;-4.222;2023-02-01T23:33:35;9.18;;;2.88;;
44426;SDS011;30133;47.866;-4.222;2023-02-01T23:36:03;5.88;;;3.20;;
44426;SDS011;30133;47.866;-4.222;2023-02-01T23:38:31;7.53;;;2.63;;
44426;SDS011;30133;47.866;-4.222;2023-02-01T23:40:58;10.10;;;3.17;;
44426;SDS011;30133;47.866;-4.222;2023-02-01T23:43:26;5.10;;;2.63;;
44426;SDS011;30133;47.866;-4.222;2023-02-01T23:46:12;6.82;;;2.65;;
44426;SDS011;30133;47.866;-4.222;2023-02-01T23:48:40;5.38;;;2.83;;
44426;SDS011;30133;47.866;-4.222;2023-02-01T23:51:07;5.88;;;3.30;;
44426;SDS011;30133;47.866;-4.222;2023-02-01T23:53:34;6.00;;;2.60;;
44426;SDS011;30133;47.866;-4.222;2023-02-01T23:56:00;4.60;;;2.40;;
44426;SDS011;30133;47.866;-4.222;2023-02-01T23:58:27;8.43;;;3.20;;
